Time;durP1;ratioP1;P1;durP2;ratioP2;P2;SDS_P1;SDS_P2;PMS_P1;PMS_P2;Temp;Humidity;BMP_temperature;BMP_pressure;BME280_temperature;BME280_humidity;BME280_pressure;Samples;Min_cycle;Max_cycle;Signal;HPM_P1;HPM_P2
2023/07/21 00:00:18;;;;;;;6.57;2.20;;;;;;;;;;5024063;28;20083;-60
2023/07/21 00:02:49;;;;;;;10.77;2.40;;;;;;;;;;5015454;28;20075;-59
2023/07/21 00:05:17;;;;;;;8.38;2.60;;;;;;;;;;5017706;28;20034;-59
2023/07/21 00:07:46;;;;;;;12.40;2.35;;;;;;;;;;5011332;28;20029;-59
2023/07/21 00:10:17;;;;;;;7.95;2.30;;;;;;;;;;5012032;28;20088;-59
2023/07/21 00:12:48;;;;;;;11.55;2.53;;;;;;;;;;5022297;28;20084;-59
2023/07/21 00:15:17;;;;;;;15.75;2.42;;;;;;;;;;5012832;28;20743;-59
2023/07/21 00:17:46;;;;;;;10.77;2.47;;;;;;;;;;5020695;28;20029;-59
2023/07/21 00:20:19;;;;;;;16.58;2.92;;;;;;;;;;5010886;28;20038;-58
2023/07/21 00:22:46;;;;;;;14.80;2.75;;;;;;;;;;5021441;28;20033;-59
2023/07/21 00:25:14;;;;;;;11.32;2.08;;;;;;;;;;5013146;28;20099;-59
2023/07/21 00:27:45;;;;;;;14.80;2.33;;;;;;;;;;5025455;28;20452;-59
2023/07/21 00:30:12;;;;;;;10.07;2.15;;;;;;;;;;5030787;28;20041;-58
2023/07/21 00:32:41;;;;;;;16.65;2.63;;;;;;;;;;5013542;28;20061;-59
2023/07/21 00:35:09;;;;;;;11.27;2.38;;;;;;;;;;5011082;28;20499;-60
2023/07/21 00:37:37;;;;;;;12.95;2.60;;;;;;;;;;5014574;28;20120;-58
2023/07/21 00:40:05;;;;;;;16.13;2.53;;;;;;;;;;5014642;28;20129;-59
2023/07/21 00:42:33;;;;;;;11.98;2.97;;;;;;;;;;5010941;28;20476;-59
2023/07/21 00:45:00;;;;;;;9.27;2.50;;;;;;;;;;5011073;28;20113;-59
2023/07/21 00:47:27;;;;;;;15.10;2.63;;;;;;;;;;5032722;28;20025;-63
2023/07/21 00:49:56;;;;;;;13.98;2.40;;;;;;;;;;5034181;28;20033;-67
2023/07/21 00:52:24;;;;;;;10.50;2.05;;;;;;;;;;5021424;28;20041;-53
2023/07/21 00:54:52;;;;;;;9.40;2.17;;;;;;;;;;5031997;28;20454;-54
2023/07/21 00:57:20;;;;;;;12.95;2.35;;;;;;;;;;5033967;28;20038;-55
2023/07/21 00:59:47;;;;;;;7.47;2.20;;;;;;;;;;5034209;28;20501;-54
2023/07/21 01:02:14;;;;;;;14.57;2.58;;;;;;;;;;5033653;28;20068;-53
2023/07/21 01:04:43;;;;;;;6.75;2.03;;;;;;;;;;5034072;28;20460;-53
2023/07/21 01:07:11;;;;;;;14.13;2.60;;;;;;;;;;5033290;28;20029;-55
2023/07/21 01:09:39;;;;;;;15.95;2.20;;;;;;;;;;5033736;28;20029;-54
2023/07/21 01:12:07;;;;;;;9.25;2.35;;;;;;;;;;5033477;28;20021;-57
2023/07/21 01:14:35;;;;;;;10.18;2.45;;;;;;;;;;5024387;28;20041;-60
2023/07/21 01:17:02;;;;;;;11.73;2.70;;;;;;;;;;5029637;28;20034;-60
2023/07/21 01:19:31;;;;;;;9.15;2.17;;;;;;;;;;5032794;28;20029;-62
2023/07/21 01:22:04;;;;;;;9.18;2.50;;;;;;;;;;5027133;28;20029;-58
2023/07/21 01:24:37;;;;;;;10.73;2.55;;;;;;;;;;5029304;28;20075;-54
2023/07/21 01:27:07;;;;;;;10.70;1.63;;;;;;;;;;5019855;28;20045;-66
2023/07/21 01:29:36;;;;;;;7.63;2.20;;;;;;;;;;5033523;28;20083;-53
2023/07/21 01:32:04;;;;;;;7.65;2.33;;;;;;;;;;5033209;28;20526;-61
2023/07/21 01:34:32;;;;;;;6.63;1.90;;;;;;;;;;5033391;28;20036;-63
2023/07/21 01:37:00;;;;;;;9.88;2.38;;;;;;;;;;5033007;28;20029;-65
2023/07/21 01:39:29;;;;;;;10.45;2.25;;;;;;;;;;5032823;28;20056;-55
2023/07/21 01:41:56;;;;;;;8.60;2.20;;;;;;;;;;5026281;28;20105;-62
2023/07/21 01:44:24;;;;;;;7.55;2.25;;;;;;;;;;5013194;28;20030;-61
2023/07/21 01:46:52;;;;;;;5.63;2.20;;;;;;;;;;5029814;28;20075;-52
2023/07/21 01:49:20;;;;;;;6.47;1.70;;;;;;;;;;5032887;28;20487;-53
2023/07/21 01:51:49;;;;;;;7.13;1.85;;;;;;;;;;5026793;28;20896;-59
2023/07/21 01:54:26;;;;;;;9.73;2.30;;;;;;;;;;5030575;28;20026;-56
2023/07/21 01:56:56;;;;;;;10.98;2.40;;;;;;;;;;5022833;28;20021;-60
2023/07/21 01:59:24;;;;;;;5.70;1.80;;;;;;;;;;5013054;28;20026;-59
2023/07/21 02:01:54;;;;;;;6.70;1.90;;;;;;;;;;5018112;28;20464;-58
2023/07/21 02:04:22;;;;;;;8.40;2.08;;;;;;;;;;5032650;28;20072;-59
2023/07/21 02:06:50;;;;;;;11.07;2.08;;;;;;;;;;5018025;28;20107;-60
2023/07/21 02:09:19;;;;;;;10.63;1.90;;;;;;;;;;5022512;28;20037;-60
2023/07/21 02:11:50;;;;;;;8.50;1.90;;;;;;;;;;5029830;28;20025;-59
2023/07/21 02:14:18;;;;;;;11.55;1.95;;;;;;;;;;5032496;28;20037;-59
2023/07/21 02:16:46;;;;;;;8.25;2.08;;;;;;;;;;5032512;28;20120;-58
2023/07/21 02:19:14;;;;;;;8.68;2.00;;;;;;;;;;5013028;28;20472;-59
2023/07/21 02:21:41;;;;;;;6.90;1.95;;;;;;;;;;5013487;28;20084;-59
2023/07/21 02:24:09;;;;;;;9.25;2.42;;;;;;;;;;5023965;28;20033;-58
2023/07/21 02:26:36;;;;;;;10.20;2.30;;;;;;;;;;5015722;28;20022;-64
2023/07/21 02:29:03;;;;;;;14.43;2.30;;;;;;;;;;5029004;28;20475;-62
2023/07/21 02:31:30;;;;;;;7.32;1.95;;;;;;;;;;5032123;28;20472;-63
2023/07/21 02:33:57;;;;;;;8.32;2.35;;;;;;;;;;5031989;28;20373;-58
2023/07/21 02:36:25;;;;;;;8.13;2.25;;;;;;;;;;5032003;28;20044;-58
2023/07/21 02:38:52;;;;;;;6.15;1.73;;;;;;;;;;5027124;28;20038;-61
2023/07/21 02:41:20;;;;;;;7.10;2.30;;;;;;;;;;5021007;28;20487;-57
2023/07/21 02:43:47;;;;;;;4.47;1.63;;;;;;;;;;5032040;28;20780;-57
2023/07/21 02:46:14;;;;;;;7.88;2.38;;;;;;;;;;5031986;28;20036;-61
2023/07/21 02:48:43;;;;;;;8.45;2.45;;;;;;;;;;5028369;28;20079;-61
2023/07/21 02:51:10;;;;;;;8.07;2.30;;;;;;;;;;5014046;28;20096;-60
2023/07/21 02:53:38;;;;;;;14.15;2.20;;;;;;;;;;5016695;28;20384;-62
2023/07/21 02:56:05;;;;;;;8.52;2.22;;;;;;;;;;5031687;28;20505;-60
2023/07/21 02:58:32;;;;;;;7.68;1.98;;;;;;;;;;5031792;28;20167;-61
2023/07/21 03:01:03;;;;;;;8.27;2.00;;;;;;;;;;5023105;28;20180;-62
2023/07/21 03:03:32;;;;;;;9.02;1.95;;;;;;;;;;5022846;28;20061;-65
2023/07/21 03:06:00;;;;;;;8.85;1.85;;;;;;;;;;5014770;28;20025;-60
2023/07/21 03:08:30;;;;;;;6.20;1.92;;;;;;;;;;5011444;28;20025;-64
2023/07/21 03:10:57;;;;;;;7.22;1.83;;;;;;;;;;5011706;28;20095;-64
2023/07/21 03:13:25;;;;;;;9.65;2.13;;;;;;;;;;5010247;28;20045;-65
2023/07/21 03:15:53;;;;;;;7.75;2.20;;;;;;;;;;5011747;28;20037;-66
2023/07/21 03:18:21;;;;;;;8.13;2.05;;;;;;;;;;5010013;28;20026;-60
2023/07/21 03:20:49;;;;;;;4.97;1.80;;;;;;;;;;5011753;28;20033;-66
2023/07/21 03:23:16;;;;;;;7.25;2.40;;;;;;;;;;5026554;28;20176;-65
2023/07/21 03:25:46;;;;;;;9.68;1.83;;;;;;;;;;5021724;28;20025;-65
2023/07/21 03:28:13;;;;;;;7.18;1.67;;;;;;;;;;5016293;28;20033;-64
2023/07/21 03:30:41;;;;;;;7.78;2.05;;;;;;;;;;5019882;28;20030;-63
2023/07/21 03:33:08;;;;;;;6.47;2.10;;;;;;;;;;5016991;28;20045;-60
2023/07/21 03:35:36;;;;;;;8.35;2.10;;;;;;;;;;5018251;28;20022;-64
2023/07/21 03:38:03;;;;;;;7.03;2.08;;;;;;;;;;5010297;28;20041;-57
2023/07/21 03:40:30;;;;;;;9.38;2.17;;;;;;;;;;5011434;28;20032;-60
2023/07/21 03:42:57;;;;;;;7.75;2.13;;;;;;;;;;5011305;28;20025;-65
2023/07/21 03:45:26;;;;;;;6.88;2.15;;;;;;;;;;5011859;28;20042;-65
2023/07/21 03:47:53;;;;;;;7.97;1.77;;;;;;;;;;5010429;28;20033;-62
2023/07/21 03:50:20;;;;;;;8.13;1.65;;;;;;;;;;5021675;28;20036;-59
2023/07/21 03:52:47;;;;;;;7.20;2.30;;;;;;;;;;5030581;28;20037;-56
2023/07/21 03:55:14;;;;;;;5.88;1.80;;;;;;;;;;5028127;28;20029;-58
2023/07/21 03:57:41;;;;;;;5.70;1.90;;;;;;;;;;5030658;28;20025;-60
2023/07/21 04:00:09;;;;;;;7.82;2.03;;;;;;;;;;5030866;28;20472;-60
2023/07/21 04:02:36;;;;;;;11.15;2.10;;;;;;;;;;5028244;28;20383;-59
2023/07/21 04:05:03;;;;;;;6.57;2.00;;;;;;;;;;5030767;28;20038;-59
2023/07/21 04:07:50;;;;;;;5.35;1.90;;;;;;;;;;5030795;28;20021;-60
2023/07/21 04:10:17;;;;;;;6.93;1.95;;;;;;;;;;5028172;28;20026;-56
2023/07/21 04:12:44;;;;;;;3.83;1.60;;;;;;;;;;5031181;28;20021;-59
2023/07/21 04:15:11;;;;;;;7.32;1.90;;;;;;;;;;5031093;28;20502;-59
2023/07/21 04:17:38;;;;;;;6.72;1.88;;;;;;;;;;5031386;28;20036;-58
2023/07/21 04:20:06;;;;;;;8.85;2.00;;;;;;;;;;5031831;28;20120;-57
2023/07/21 04:22:33;;;;;;;7.05;2.22;;;;;;;;;;5034925;28;20040;-58
2023/07/21 04:25:00;;;;;;;5.70;1.95;;;;;;;;;;5035024;28;20487;-57
2023/07/21 04:27:30;;;;;;;6.88;1.80;;;;;;;;;;5035057;28;20032;-58
2023/07/21 04:29:58;;;;;;;6.63;1.90;;;;;;;;;;5034845;28;20033;-57
2023/07/21 04:32:25;;;;;;;8.85;2.08;;;;;;;;;;5034588;28;20056;-57
2023/07/21 04:34:52;;;;;;;8.70;2.13;;;;;;;;;;5034845;28;20498;-58
2023/07/21 04:37:19;;;;;;;8.10;2.17;;;;;;;;;;5034670;28;20392;-54
2023/07/21 04:39:46;;;;;;;3.95;2.10;;;;;;;;;;5034884;28;20033;-58
2023/07/21 04:42:13;;;;;;;8.25;2.00;;;;;;;;;;5034727;28;20021;-57
2023/07/21 04:44:40;;;;;;;7.05;1.83;;;;;;;;;;5034810;28;20025;-58
2023/07/21 04:47:07;;;;;;;6.28;1.90;;;;;;;;;;5034566;28;20088;-57
2023/07/21 04:49:34;;;;;;;4.97;1.80;;;;;;;;;;5034584;28;20029;-56
2023/07/21 04:52:02;;;;;;;4.57;1.95;;;;;;;;;;5034573;28;20083;-55
2023/07/21 04:54:29;;;;;;;6.53;1.67;;;;;;;;;;5034401;28;20044;-57
2023/07/21 04:56:56;;;;;;;6.57;1.88;;;;;;;;;;5034322;28;20033;-57
2023/07/21 04:59:24;;;;;;;5.95;2.08;;;;;;;;;;5034435;28;20021;-57
2023/07/21 05:01:51;;;;;;;6.43;1.95;;;;;;;;;;5034331;28;20029;-57
2023/07/21 05:04:20;;;;;;;5.13;1.60;;;;;;;;;;5034280;28;20540;-57
2023/07/21 05:06:48;;;;;;;4.88;1.80;;;;;;;;;;5034398;28;20029;-57
2023/07/21 05:09:15;;;;;;;4.55;1.90;;;;;;;;;;5034228;28;20480;-58
2023/07/21 05:11:42;;;;;;;9.63;1.70;;;;;;;;;;5034182;28;20045;-58
2023/07/21 05:14:11;;;;;;;5.07;1.65;;;;;;;;;;5034268;28;20021;-57
2023/07/21 05:16:38;;;;;;;5.85;1.60;;;;;;;;;;5034038;28;20069;-55
2023/07/21 05:19:05;;;;;;;3.58;1.80;;;;;;;;;;5034229;28;20029;-57
2023/07/21 05:21:32;;;;;;;5.13;2.00;;;;;;;;;;5034191;28;20426;-56
2023/07/21 05:23:59;;;;;;;7.30;2.22;;;;;;;;;;5033941;28;20589;-57
2023/07/21 05:26:28;;;;;;;7.15;2.17;;;;;;;;;;5034051;28;20033;-58
2023/07/21 05:28:55;;;;;;;3.75;1.83;;;;;;;;;;5033867;28;20041;-56
2023/07/21 05:31:22;;;;;;;9.13;1.65;;;;;;;;;;5033586;28;20606;-58
2023/07/21 05:33:51;;;;;;;2.63;1.40;;;;;;;;;;5033380;28;20061;-59
2023/07/21 05:36:18;;;;;;;7.75;2.00;;;;;;;;;;5033727;28;20037;-58
2023/07/21 05:38:45;;;;;;;7.32;2.00;;;;;;;;;;5033822;28;20156;-58
2023/07/21 05:41:12;;;;;;;4.75;1.60;;;;;;;;;;5033814;28;20029;-58
2023/07/21 05:43:39;;;;;;;2.97;1.70;;;;;;;;;;5033638;28;20018;-58
2023/07/21 05:46:06;;;;;;;5.32;1.60;;;;;;;;;;5033696;28;20031;-56
2023/07/21 05:48:33;;;;;;;4.90;1.65;;;;;;;;;;5033602;28;20065;-57
2023/07/21 05:51:00;;;;;;;5.15;1.70;;;;;;;;;;5033690;28;20042;-58
2023/07/21 05:53:27;;;;;;;5.78;1.75;;;;;;;;;;5033473;28;20026;-58
2023/07/21 05:55:55;;;;;;;3.38;1.90;;;;;;;;;;5033425;28;20487;-59
2023/07/21 05:58:22;;;;;;;3.78;1.95;;;;;;;;;;5033508;28;20108;-58
2023/07/21 06:00:50;;;;;;;4.40;1.60;;;;;;;;;;5031985;28;20030;-60
2023/07/21 06:03:17;;;;;;;6.07;1.90;;;;;;;;;;5033200;28;20475;-57
2023/07/21 06:05:45;;;;;;;6.55;2.03;;;;;;;;;;5033368;28;20029;-56
2023/07/21 06:08:12;;;;;;;6.60;2.30;;;;;;;;;;5033103;28;20553;-58
2023/07/21 06:10:40;;;;;;;7.43;2.08;;;;;;;;;;5033220;28;20029;-57
2023/07/21 06:13:08;;;;;;;3.22;1.60;;;;;;;;;;5032999;28;20029;-57
2023/07/21 06:15:36;;;;;;;4.40;1.80;;;;;;;;;;5032906;28;20124;-58
2023/07/21 06:18:06;;;;;;;3.80;1.70;;;;;;;;;;5032923;28;20029;-58
2023/07/21 06:20:33;;;;;;;4.82;1.70;;;;;;;;;;5033041;28;20507;-56
2023/07/21 06:23:01;;;;;;;4.72;1.73;;;;;;;;;;5032940;28;20064;-58
2023/07/21 06:25:28;;;;;;;3.83;2.00;;;;;;;;;;5032957;28;20480;-56
2023/07/21 06:27:55;;;;;;;6.47;1.83;;;;;;;;;;5032788;28;20407;-58
2023/07/21 06:30:22;;;;;;;4.80;2.05;;;;;;;;;;5032863;28;20033;-57
2023/07/21 06:32:49;;;;;;;3.63;1.60;;;;;;;;;;5032451;28;20402;-58
2023/07/21 06:35:16;;;;;;;7.00;1.92;;;;;;;;;;5032566;28;20091;-57
2023/07/21 06:37:43;;;;;;;3.45;1.65;;;;;;;;;;5032691;28;20398;-58
2023/07/21 06:40:10;;;;;;;3.80;1.92;;;;;;;;;;5032465;28;20033;-58
2023/07/21 06:42:39;;;;;;;3.78;1.83;;;;;;;;;;5014648;28;20437;-55
2023/07/21 06:45:09;;;;;;;3.97;1.92;;;;;;;;;;5031436;28;20034;-56
2023/07/21 06:47:36;;;;;;;4.35;2.13;;;;;;;;;;5032423;28;20040;-58
2023/07/21 06:50:03;;;;;;;3.78;1.70;;;;;;;;;;5032491;28;20026;-56
2023/07/21 06:52:30;;;;;;;2.95;1.77;;;;;;;;;;5032351;28;20021;-57
2023/07/21 06:55:01;;;;;;;3.40;1.70;;;;;;;;;;5032379;28;20041;-57
2023/07/21 06:57:28;;;;;;;3.00;1.67;;;;;;;;;;5032338;28;20033;-58
2023/07/21 06:59:55;;;;;;;4.65;2.03;;;;;;;;;;5032242;28;20100;-58
2023/07/21 07:02:22;;;;;;;2.72;1.70;;;;;;;;;;5032243;28;20029;-58
2023/07/21 07:04:51;;;;;;;3.75;1.75;;;;;;;;;;5032246;28;20482;-58
2023/07/21 07:07:18;;;;;;;2.63;1.90;;;;;;;;;;5032058;28;20116;-57
2023/07/21 07:09:46;;;;;;;3.03;1.77;;;;;;;;;;5032183;28;20497;-58
2023/07/21 07:12:13;;;;;;;3.55;1.70;;;;;;;;;;5032004;28;20099;-57
2023/07/21 07:14:40;;;;;;;4.25;1.83;;;;;;;;;;5031549;28;20456;-58
2023/07/21 07:17:07;;;;;;;2.83;1.52;;;;;;;;;;5032057;28;20033;-58
2023/07/21 07:19:34;;;;;;;4.25;1.70;;;;;;;;;;5032067;28;20527;-58
2023/07/21 07:22:01;;;;;;;4.38;1.83;;;;;;;;;;5031877;28;20104;-58
2023/07/21 07:24:28;;;;;;;4.32;2.00;;;;;;;;;;5031930;28;20025;-59
2023/07/21 07:26:55;;;;;;;6.88;1.70;;;;;;;;;;5031896;28;20033;-58
2023/07/21 07:29:22;;;;;;;2.38;1.60;;;;;;;;;;5024458;28;20030;-57
2023/07/21 07:31:50;;;;;;;4.38;1.90;;;;;;;;;;5011953;28;20625;-58
2023/07/21 07:34:17;;;;;;;3.63;1.60;;;;;;;;;;5011910;28;20045;-58
2023/07/21 07:36:44;;;;;;;3.30;1.63;;;;;;;;;;5012009;28;20038;-57
2023/07/21 07:39:15;;;;;;;4.10;1.80;;;;;;;;;;5012063;28;20029;-58
2023/07/21 07:41:42;;;;;;;4.93;1.77;;;;;;;;;;5011769;28;20542;-57
2023/07/21 07:44:09;;;;;;;2.90;1.70;;;;;;;;;;5011983;28;20029;-58
2023/07/21 07:46:36;;;;;;;2.85;1.70;;;;;;;;;;5012014;28;20022;-58
2023/07/21 07:49:04;;;;;;;2.30;1.42;;;;;;;;;;5011956;28;20045;-57
2023/07/21 07:51:31;;;;;;;3.80;1.52;;;;;;;;;;5011808;28;20026;-57
2023/07/21 07:53:58;;;;;;;3.35;1.70;;;;;;;;;;5011889;28;20053;-58
2023/07/21 07:56:26;;;;;;;2.53;1.45;;;;;;;;;;5014861;28;20038;-57
2023/07/21 07:58:53;;;;;;;3.75;1.50;;;;;;;;;;5015964;28;20057;-58
2023/07/21 08:01:20;;;;;;;4.97;1.98;;;;;;;;;;5015882;28;20022;-58
2023/07/21 08:03:47;;;;;;;5.57;1.73;;;;;;;;;;5015833;28;20037;-58
2023/07/21 08:06:14;;;;;;;5.18;1.70;;;;;;;;;;5015816;28;20829;-58
2023/07/21 08:08:42;;;;;;;2.67;1.80;;;;;;;;;;5015781;28;20467;-58
2023/07/21 08:11:09;;;;;;;2.80;1.70;;;;;;;;;;5015705;28;20053;-57
2023/07/21 08:13:38;;;;;;;2.40;1.70;;;;;;;;;;5015526;28;20030;-56
2023/07/21 08:16:13;;;;;;;2.47;1.60;;;;;;;;;;5015649;28;20038;-56
2023/07/21 08:18:40;;;;;;;4.18;1.80;;;;;;;;;;4997882;28;20033;-58
2023/07/21 08:21:20;;;;;;;2.25;1.50;;;;;;;;;;5015561;28;20026;-58
2023/07/21 08:23:48;;;;;;;3.30;1.83;;;;;;;;;;5015381;28;20026;-56
2023/07/21 08:26:15;;;;;;;3.92;1.58;;;;;;;;;;5015417;28;20168;-57
2023/07/21 08:28:42;;;;;;;4.70;1.67;;;;;;;;;;5015401;28;20026;-58
2023/07/21 08:31:09;;;;;;;2.30;1.58;;;;;;;;;;5015387;28;20029;-57
2023/07/21 08:33:37;;;;;;;2.17;1.63;;;;;;;;;;4997407;28;20125;-57
2023/07/21 08:36:05;;;;;;;3.45;1.58;;;;;;;;;;5015147;28;20041;-57
2023/07/21 08:38:35;;;;;;;3.75;1.70;;;;;;;;;;5015068;28;20077;-57
2023/07/21 08:41:07;;;;;;;3.42;1.35;;;;;;;;;;5015185;28;20080;-58
2023/07/21 08:43:34;;;;;;;2.13;1.53;;;;;;;;;;5015110;28;20101;-58
2023/07/21 08:46:03;;;;;;;3.20;1.75;;;;;;;;;;5014983;28;20323;-58
2023/07/21 08:48:31;;;;;;;3.97;1.70;;;;;;;;;;5014983;28;20088;-57
2023/07/21 08:50:58;;;;;;;2.42;1.45;;;;;;;;;;5015022;28;20054;-58
2023/07/21 08:53:26;;;;;;;4.88;1.67;;;;;;;;;;5014849;28;20033;-57
2023/07/21 08:55:56;;;;;;;3.03;1.60;;;;;;;;;;5014822;28;20040;-57
2023/07/21 08:58:24;;;;;;;2.28;1.70;;;;;;;;;;5014839;28;20022;-58
2023/07/21 09:00:52;;;;;;;2.80;1.52;;;;;;;;;;5014841;28;20029;-58
2023/07/21 09:03:23;;;;;;;2.45;1.60;;;;;;;;;;5014664;28;20060;-58
2023/07/21 09:05:50;;;;;;;5.40;1.70;;;;;;;;;;5014710;28;20046;-57
2023/07/21 09:08:25;;;;;;;2.85;1.67;;;;;;;;;;5013726;28;20037;-58
2023/07/21 09:10:52;;;;;;;2.50;1.35;;;;;;;;;;5014615;28;20076;-58
2023/07/21 09:13:20;;;;;;;2.70;1.60;;;;;;;;;;5014487;28;20026;-56
2023/07/21 09:15:57;;;;;;;2.05;1.60;;;;;;;;;;5014399;28;20041;-58
2023/07/21 09:18:28;;;;;;;2.45;1.50;;;;;;;;;;5014540;28;20050;-58
2023/07/21 09:20:55;;;;;;;2.50;1.60;;;;;;;;;;4996755;28;20408;-58
2023/07/21 09:23:23;;;;;;;2.90;1.85;;;;;;;;;;5014114;28;20688;-58
2023/07/21 09:25:50;;;;;;;3.50;1.38;;;;;;;;;;4996710;28;20034;-58
2023/07/21 09:28:17;;;;;;;2.40;1.40;;;;;;;;;;5014293;28;20026;-58
2023/07/21 09:30:54;;;;;;;4.40;1.58;;;;;;;;;;5014113;28;20308;-58
2023/07/21 09:33:25;;;;;;;2.45;1.50;;;;;;;;;;5013847;28;20045;-58
2023/07/21 09:35:54;;;;;;;3.85;1.60;;;;;;;;;;5014003;28;20443;-56
2023/07/21 09:38:22;;;;;;;2.53;1.85;;;;;;;;;;5014120;28;20124;-58
2023/07/21 09:40:49;;;;;;;2.78;1.63;;;;;;;;;;5014052;28;20488;-58
2023/07/21 09:43:16;;;;;;;3.55;1.45;;;;;;;;;;5013765;28;20127;-58
2023/07/21 09:45:43;;;;;;;2.70;1.60;;;;;;;;;;4996331;28;20378;-57
2023/07/21 09:48:11;;;;;;;2.60;1.70;;;;;;;;;;5013980;28;20029;-58
2023/07/21 09:50:38;;;;;;;3.08;1.90;;;;;;;;;;5013813;28;20368;-58
2023/07/21 09:53:05;;;;;;;3.00;1.65;;;;;;;;;;5013775;28;20579;-58
2023/07/21 09:55:35;;;;;;;3.35;1.70;;;;;;;;;;5013661;28;20034;-58
2023/07/21 09:58:04;;;;;;;2.90;1.67;;;;;;;;;;5013752;28;20018;-56
2023/07/21 10:00:33;;;;;;;2.55;1.80;;;;;;;;;;5013571;28;20391;-58
2023/07/21 10:03:00;;;;;;;3.00;1.70;;;;;;;;;;5013536;28;20400;-57
2023/07/21 10:05:27;;;;;;;4.75;1.98;;;;;;;;;;5013576;28;20458;-58
2023/07/21 10:07:56;;;;;;;2.58;1.75;;;;;;;;;;5013600;28;20030;-57
2023/07/21 10:10:23;;;;;;;3.00;1.75;;;;;;;;;;5013403;28;20045;-58
2023/07/21 10:12:52;;;;;;;3.53;2.03;;;;;;;;;;5013362;28;20091;-56
2023/07/21 10:15:20;;;;;;;3.28;1.80;;;;;;;;;;5013310;28;20037;-56
2023/07/21 10:17:57;;;;;;;2.92;1.70;;;;;;;;;;5012909;28;20400;-58
2023/07/21 10:20:44;;;;;;;3.30;1.77;;;;;;;;;;5013354;28;20030;-56
2023/07/21 10:23:15;;;;;;;5.47;1.80;;;;;;;;;;5006238;28;20507;-57
2023/07/21 10:25:55;;;;;;;4.93;2.00;;;;;;;;;;5013035;28;20058;-58
2023/07/21 10:28:31;;;;;;;5.50;2.13;;;;;;;;;;5013103;28;20484;-58
2023/07/21 10:31:17;;;;;;;2.85;1.90;;;;;;;;;;5013034;28;20049;-58
2023/07/21 10:34:04;;;;;;;3.92;1.77;;;;;;;;;;5012793;28;20053;-57
2023/07/21 10:36:49;;;;;;;2.88;1.80;;;;;;;;;;5012917;28;20044;-57
2023/07/21 10:39:19;;;;;;;2.88;1.92;;;;;;;;;;5012893;28;20105;-57
2023/07/21 10:41:47;;;;;;;3.17;1.90;;;;;;;;;;5012645;28;20062;-55
2023/07/21 10:44:15;;;;;;;3.53;1.90;;;;;;;;;;5012723;28;20033;-58
2023/07/21 10:46:43;;;;;;;5.10;1.85;;;;;;;;;;5012671;28;20040;-58
2023/07/21 10:49:10;;;;;;;5.38;2.05;;;;;;;;;;5012791;28;20058;-58
2023/07/21 10:51:41;;;;;;;3.20;2.10;;;;;;;;;;5012575;28;20369;-58
2023/07/21 10:54:08;;;;;;;3.53;1.98;;;;;;;;;;4994937;28;20112;-57
2023/07/21 10:56:36;;;;;;;5.30;2.15;;;;;;;;;;5012475;28;20491;-58
2023/07/21 10:59:03;;;;;;;2.83;1.90;;;;;;;;;;5012612;28;20037;-57
2023/07/21 11:01:31;;;;;;;2.80;2.03;;;;;;;;;;5012435;28;20052;-56
2023/07/21 11:03:59;;;;;;;2.22;1.83;;;;;;;;;;5012346;28;20117;-58
2023/07/21 11:06:26;;;;;;;2.50;1.65;;;;;;;;;;5012453;28;20069;-57
2023/07/21 11:08:53;;;;;;;3.83;2.10;;;;;;;;;;5012308;28;20114;-56
2023/07/21 11:11:21;;;;;;;3.15;2.00;;;;;;;;;;5012290;28;20026;-57
2023/07/21 11:13:48;;;;;;;5.55;2.00;;;;;;;;;;5012251;28;20038;-57
2023/07/21 11:16:15;;;;;;;5.30;2.00;;;;;;;;;;5012197;28;20121;-56
2023/07/21 11:18:43;;;;;;;5.25;1.90;;;;;;;;;;5012312;28;20503;-57
2023/07/21 11:21:10;;;;;;;3.78;2.10;;;;;;;;;;5012119;28;20101;-57
2023/07/21 11:23:37;;;;;;;5.75;1.92;;;;;;;;;;5012043;28;20071;-57
2023/07/21 11:26:13;;;;;;;3.88;2.00;;;;;;;;;;5012207;28;20034;-58
2023/07/21 11:28:42;;;;;;;5.00;1.90;;;;;;;;;;5012047;28;20026;-58
2023/07/21 11:31:14;;;;;;;6.45;2.30;;;;;;;;;;5010927;28;20116;-57
2023/07/21 11:33:48;;;;;;;6.10;1.90;;;;;;;;;;4997082;28;20049;-61
2023/07/21 11:36:20;;;;;;;6.57;2.22;;;;;;;;;;5031498;28;20084;-61
2023/07/21 11:39:01;;;;;;;4.75;2.08;;;;;;;;;;5031328;28;20060;-61
2023/07/21 11:41:36;;;;;;;5.22;1.60;;;;;;;;;;5031616;28;20026;-61
2023/07/21 11:44:23;;;;;;;4.15;1.88;;;;;;;;;;5031616;28;20030;-61
2023/07/21 11:46:57;;;;;;;4.82;1.83;;;;;;;;;;5031542;28;20037;-61
2023/07/21 11:49:25;;;;;;;4.32;1.95;;;;;;;;;;5031628;28;20475;-61
2023/07/21 11:51:53;;;;;;;5.90;2.17;;;;;;;;;;5031449;28;20088;-61
2023/07/21 11:54:20;;;;;;;4.18;2.30;;;;;;;;;;5031621;28;20037;-61
2023/07/21 11:56:47;;;;;;;6.63;2.08;;;;;;;;;;5030849;28;20045;-61
2023/07/21 11:59:15;;;;;;;3.40;2.30;;;;;;;;;;5031316;28;20065;-60
2023/07/21 12:01:42;;;;;;;6.53;2.13;;;;;;;;;;5031169;28;20029;-61
2023/07/21 12:04:09;;;;;;;5.38;2.22;;;;;;;;;;5031110;28;20060;-58
2023/07/21 12:06:36;;;;;;;8.75;2.80;;;;;;;;;;5030921;28;20022;-63
2023/07/21 12:09:07;;;;;;;21.75;3.22;;;;;;;;;;5030298;28;20105;-60
2023/07/21 12:11:38;;;;;;;26.17;2.88;;;;;;;;;;5030809;28;20068;-55
2023/07/21 12:14:05;;;;;;;123.80;7.85;;;;;;;;;;5031187;28;20029;-65
2023/07/21 12:16:35;;;;;;;45.92;4.78;;;;;;;;;;5030449;28;20033;-63
2023/07/21 12:19:03;;;;;;;34.38;4.63;;;;;;;;;;5031111;28;20028;-64
2023/07/21 12:21:30;;;;;;;23.83;3.90;;;;;;;;;;5030816;28;20503;-63
2023/07/21 12:23:58;;;;;;;30.23;3.90;;;;;;;;;;5027994;28;20105;-64
2023/07/21 12:26:25;;;;;;;31.67;4.63;;;;;;;;;;5030416;28;20048;-63
2023/07/21 12:28:53;;;;;;;35.60;4.60;;;;;;;;;;5010455;28;20740;-60
2023/07/21 12:31:21;;;;;;;29.60;4.80;;;;;;;;;;5023161;28;20034;-63
2023/07/21 12:33:49;;;;;;;127.63;9.15;;;;;;;;;;5026188;28;20095;-63
2023/07/21 12:36:16;;;;;;;33.55;5.00;;;;;;;;;;5019639;28;20730;-63
2023/07/21 12:38:44;;;;;;;32.95;4.70;;;;;;;;;;5010741;28;20397;-63
2023/07/21 12:41:11;;;;;;;26.65;4.53;;;;;;;;;;5011825;28;20033;-63
2023/07/21 12:43:39;;;;;;;24.95;4.28;;;;;;;;;;5032594;28;20072;-63
2023/07/21 12:46:06;;;;;;;37.42;4.68;;;;;;;;;;5034504;28;20500;-63
2023/07/21 12:48:33;;;;;;;38.63;5.25;;;;;;;;;;5034056;28;20038;-63
2023/07/21 12:51:01;;;;;;;63.55;7.07;;;;;;;;;;5034235;28;20037;-63
2023/07/21 12:53:29;;;;;;;82.63;8.80;;;;;;;;;;5033843;28;20025;-63
2023/07/21 12:55:56;;;;;;;71.35;8.70;;;;;;;;;;5034265;28;20506;-62
2023/07/21 12:58:23;;;;;;;84.53;9.50;;;;;;;;;;5034003;28;20041;-62
2023/07/21 13:00:50;;;;;;;81.50;10.30;;;;;;;;;;5020916;28;20030;-62
2023/07/21 13:03:17;;;;;;;52.60;7.25;;;;;;;;;;5033693;28;20033;-63
2023/07/21 13:05:44;;;;;;;54.33;7.85;;;;;;;;;;5033885;28;20400;-63
2023/07/21 13:08:11;;;;;;;59.15;8.15;;;;;;;;;;5033733;28;20025;-62
2023/07/21 13:10:38;;;;;;;51.75;8.10;;;;;;;;;;5033897;28;20037;-63
2023/07/21 13:13:05;;;;;;;47.50;8.13;;;;;;;;;;5033331;28;20044;-63
2023/07/21 13:15:33;;;;;;;48.20;7.95;;;;;;;;;;5033512;28;20048;-63
2023/07/21 13:18:00;;;;;;;50.85;7.25;;;;;;;;;;5033764;28;20218;-63
2023/07/21 13:20:27;;;;;;;42.17;7.47;;;;;;;;;;5033892;28;20800;-62
2023/07/21 13:22:54;;;;;;;48.28;8.25;;;;;;;;;;5033451;28;20037;-63
2023/07/21 13:25:21;;;;;;;58.40;8.30;;;;;;;;;;5033459;28;20036;-62
2023/07/21 13:27:48;;;;;;;45.83;8.20;;;;;;;;;;5033538;28;20048;-63
2023/07/21 13:30:15;;;;;;;49.05;7.78;;;;;;;;;;5009938;28;20041;-62
2023/07/21 13:32:42;;;;;;;51.22;7.75;;;;;;;;;;5029503;28;20586;-62
2023/07/21 13:35:09;;;;;;;50.65;8.13;;;;;;;;;;5033502;28;20038;-63
2023/07/21 13:37:36;;;;;;;38.22;7.07;;;;;;;;;;5032947;28;20033;-62
2023/07/21 13:40:05;;;;;;;49.92;8.55;;;;;;;;;;5033362;28;20430;-63
2023/07/21 13:42:32;;;;;;;42.63;7.50;;;;;;;;;;5032534;28;20044;-63
2023/07/21 13:44:59;;;;;;;39.80;7.38;;;;;;;;;;5033272;28;20040;-62
2023/07/21 13:47:26;;;;;;;46.10;6.68;;;;;;;;;;5033229;28;20105;-62
2023/07/21 13:49:54;;;;;;;48.67;7.43;;;;;;;;;;5033199;28;20559;-63
2023/07/21 13:52:21;;;;;;;45.78;7.65;;;;;;;;;;5032627;28;20026;-62
2023/07/21 13:54:49;;;;;;;41.80;7.70;;;;;;;;;;5032822;28;20395;-63
2023/07/21 13:57:16;;;;;;;38.95;7.90;;;;;;;;;;5032725;28;20068;-62
2023/07/21 13:59:44;;;;;;;38.85;7.68;;;;;;;;;;5026522;28;20115;-63
2023/07/21 14:02:11;;;;;;;37.55;7.40;;;;;;;;;;5025034;28;20079;-62
2023/07/21 14:04:38;;;;;;;43.05;7.78;;;;;;;;;;5032825;28;20083;-63
2023/07/21 14:07:05;;;;;;;35.92;7.13;;;;;;;;;;5032474;28;20533;-62
2023/07/21 14:09:32;;;;;;;41.35;7.45;;;;;;;;;;5032615;28;20037;-62
2023/07/21 14:12:00;;;;;;;44.40;7.35;;;;;;;;;;5032468;28;20487;-62
2023/07/21 14:14:27;;;;;;;49.13;7.00;;;;;;;;;;5032806;28;20037;-63
2023/07/21 14:16:55;;;;;;;37.92;6.68;;;;;;;;;;5032309;28;20415;-62
2023/07/21 14:19:22;;;;;;;28.80;6.47;;;;;;;;;;5032626;28;20037;-62
2023/07/21 14:21:49;;;;;;;35.35;6.72;;;;;;;;;;5032372;28;20032;-62
2023/07/21 14:24:16;;;;;;;33.10;6.53;;;;;;;;;;5026632;28;20045;-63
2023/07/21 14:26:43;;;;;;;41.75;6.90;;;;;;;;;;5031896;28;20064;-62
2023/07/21 14:29:10;;;;;;;31.63;6.90;;;;;;;;;;5030902;28;20084;-63
2023/07/21 14:31:37;;;;;;;27.50;5.68;;;;;;;;;;5023182;28;20029;-62
2023/07/21 14:34:04;;;;;;;25.65;5.55;;;;;;;;;;5031788;28;20045;-63
2023/07/21 14:36:31;;;;;;;23.90;5.25;;;;;;;;;;5019380;28;20073;-62
2023/07/21 14:38:58;;;;;;;26.40;5.95;;;;;;;;;;5032131;28;20029;-62
2023/07/21 14:41:26;;;;;;;32.60;5.97;;;;;;;;;;5027629;28;20187;-63
2023/07/21 14:43:53;;;;;;;24.80;5.57;;;;;;;;;;5031261;28;20045;-62